バンギ の空港の天気 - METARとTAF

バンギ・ムポコ国際空港 ( FEFF / BGF ) - 中央アフリカ バンギ
飛行場実況気象(Metar)
観測時間04/20 05:00 WAT (04/20 04:00 UTC)
風向・風速北北東 2m/s
視程7000m
天気現象
全天の4割程度の雲 雲底高度 210m
気温23℃
湿度94%
気圧1009hPa
METARFEFF 200400Z 02003KT 7000 SCT007 23/22 Q1009 BECMG 4000 BR BKN006
過去の天気等 Google飛行場航空写真 Wunderground天気予報

過去48時間のMETAR

飛行場予報(TAF)
発表時間: 4/21 00:00 WAT (4/20 23:00 UTC)
予報対象時間: 21日1時 WAT ~ 22日7時 WAT
風向・風速不定 2m/s
視程6000m
少しの雲 雲底高度 300m
21日1時 WAT ~ 21日6時 WAT に 確率 30% で一時的に
風向・風速南南東 5m/s 瞬間風速 13m/s
天気現象雷雨
全天の8割程度の雲 雲底高度 300m
少しの積乱雲 雲底高度 1010m
21日7時 WAT ~ 21日9時 WAT に徐々に
全天の8割程度の雲 雲底高度 300m
21日12時 WAT ~ 21日14時 WAT に徐々に
全天の8割程度の雲 雲底高度 430m
少しの積乱雲 雲底高度 1010m
21日16時 WAT ~ 21日21時 WAT に 確率 30% で一時的に
天気現象雷雨
TAF FEFF 202300Z 2100/2206 VRB03KT 6000 FEW010
PROB30 TEMPO 2024/2105 16010G25KT TSRA BKN010 FEW033CB
BECMG 2106/2108 BKN010
BECMG 2111/2113 BKN014 FEW033CB
PROB30 TEMPO 2115/2120 TSRA